Time;durP1;ratioP1;P1;durP2;ratioP2;P2;SDS_P1;SDS_P2;PMS_P1;PMS_P2;Temp;Humidity;BMP_temperature;BMP_pressure;BME280_temperature;BME280_humidity;BME280_pressure;Samples;Min_cycle;Max_cycle;Signal;HPM_P1;HPM_P2
2023/10/19 00:01:27;;;;;;;13.40;12.00;;;;;;;;;;5021424;28;20186;-80
2023/10/19 00:03:55;;;;;;;17.10;13.37;;;;;;;;;;5022928;28;20214;-80
2023/10/19 00:06:23;;;;;;;14.97;12.67;;;;;;;;;;5002808;28;20186;-80
2023/10/19 00:08:52;;;;;;;12.87;10.53;;;;;;;;;;4988953;28;20190;-80
2023/10/19 00:11:22;;;;;;;14.47;12.20;;;;;;;;;;5024673;28;20191;-80
2023/10/19 00:13:53;;;;;;;13.77;12.27;;;;;;;;;;5000745;28;20214;-80
2023/10/19 00:16:22;;;;;;;14.93;13.17;;;;;;;;;;5014171;28;20643;-79
2023/10/19 00:18:49;;;;;;;16.30;14.47;;;;;;;;;;5010385;28;20191;-80
2023/10/19 00:21:24;;;;;;;15.83;13.10;;;;;;;;;;5015312;28;20187;-80
2023/10/19 00:23:55;;;;;;;16.73;13.37;;;;;;;;;;5018553;28;20206;-80
2023/10/19 00:26:24;;;;;;;17.97;15.13;;;;;;;;;;5020325;28;20632;-79
2023/10/19 00:28:55;;;;;;;17.00;15.20;;;;;;;;;;5021072;28;20228;-79
2023/10/19 00:31:22;;;;;;;16.40;14.47;;;;;;;;;;5000854;28;20195;-80
2023/10/19 00:33:51;;;;;;;17.80;14.80;;;;;;;;;;5013801;28;20211;-79
2023/10/19 00:36:20;;;;;;;21.30;15.57;;;;;;;;;;5023300;28;20228;-79
2023/10/19 00:41:32;;;;;;;17.60;15.40;;;;;;;;;;4984490;28;20198;-80
2023/10/19 00:44:42;;;;;;;20.07;15.37;;;;;;;;;;5013217;28;20211;-80
2023/10/19 00:47:07;;;;;;;19.70;15.43;;;;;;;;;;4979059;28;20218;-79
2023/10/19 00:49:33;;;;;;;15.63;13.70;;;;;;;;;;5014657;28;20213;-80
2023/10/19 00:52:10;;;;;;;21.83;16.73;;;;;;;;;;5003510;28;20229;-79
2023/10/19 00:54:51;;;;;;;21.43;16.57;;;;;;;;;;4997623;28;20525;-81
2023/10/19 00:57:32;;;;;;;17.80;13.90;;;;;;;;;;5003021;28;20235;-80
2023/10/19 01:00:11;;;;;;;13.73;11.33;;;;;;;;;;5016127;28;20187;-81
2023/10/19 01:02:45;;;;;;;15.20;11.67;;;;;;;;;;5007875;28;20206;-80
2023/10/19 01:05:14;;;;;;;12.27;10.60;;;;;;;;;;5003069;28;20187;-80
2023/10/19 01:07:40;;;;;;;11.63;10.43;;;;;;;;;;5010813;28;20179;-80
2023/10/19 01:10:08;;;;;;;12.20;10.57;;;;;;;;;;5005281;28;20276;-81
2023/10/19 01:12:40;;;;;;;16.27;12.20;;;;;;;;;;5017112;28;20686;-80
2023/10/19 01:15:17;;;;;;;13.63;10.70;;;;;;;;;;5002515;28;20266;-81
2023/10/19 01:17:53;;;;;;;13.73;10.80;;;;;;;;;;4961891;28;20213;-81
2023/10/19 01:23:06;;;;;;;11.33;10.10;;;;;;;;;;5007832;28;20206;-80
2023/10/19 01:25:38;;;;;;;10.13;9.03;;;;;;;;;;5020044;28;20550;-80
2023/10/19 01:28:08;;;;;;;9.13;7.67;;;;;;;;;;5022355;28;20186;-81
2023/10/19 01:30:38;;;;;;;10.30;8.20;;;;;;;;;;4987862;28;20256;-80
2023/10/19 01:33:12;;;;;;;8.00;7.27;;;;;;;;;;5006399;28;20289;-80
2023/10/19 01:38:31;;;;;;;8.83;7.93;;;;;;;;;;5005641;28;20274;-80
2023/10/19 01:41:01;;;;;;;10.00;8.30;;;;;;;;;;4991522;28;20187;-80
2023/10/19 01:43:31;;;;;;;8.07;7.27;;;;;;;;;;5006377;28;20706;-80
2023/10/19 01:46:04;;;;;;;10.03;8.87;;;;;;;;;;5024835;28;20654;-80
2023/10/19 01:48:38;;;;;;;10.77;9.57;;;;;;;;;;5021991;22;20309;-80
2023/10/19 01:51:05;;;;;;;11.13;9.77;;;;;;;;;;5001222;28;20218;-80
2023/10/19 01:53:32;;;;;;;15.30;11.33;;;;;;;;;;5018071;28;20224;-80
2023/10/19 01:55:58;;;;;;;13.70;11.50;;;;;;;;;;5010400;28;20207;-80
2023/10/19 01:58:25;;;;;;;13.50;11.10;;;;;;;;;;4985728;28;20247;-80
2023/10/19 02:00:55;;;;;;;11.63;10.43;;;;;;;;;;4983740;28;20563;-80
2023/10/19 02:03:27;;;;;;;13.53;11.80;;;;;;;;;;5008635;28;20212;-80
2023/10/19 02:06:05;;;;;;;11.73;10.53;;;;;;;;;;4998886;28;20310;-80
2023/10/19 02:08:32;;;;;;;14.77;12.00;;;;;;;;;;4996536;28;20674;-80
2023/10/19 02:11:02;;;;;;;12.53;11.23;;;;;;;;;;5016933;28;20215;-80
2023/10/19 02:13:28;;;;;;;13.33;11.93;;;;;;;;;;4982082;28;20284;-80
2023/10/19 02:15:56;;;;;;;12.37;11.07;;;;;;;;;;5000694;28;20184;-80
2023/10/19 02:18:22;;;;;;;13.10;11.60;;;;;;;;;;5029910;28;20293;-80
2023/10/19 02:20:48;;;;;;;13.73;10.93;;;;;;;;;;4998390;28;20191;-80
2023/10/19 02:23:14;;;;;;;12.57;10.87;;;;;;;;;;5010777;28;20321;-83
2023/10/19 02:25:42;;;;;;;13.40;11.00;;;;;;;;;;4997187;28;20670;-80
2023/10/19 02:28:09;;;;;;;12.10;10.67;;;;;;;;;;5010177;28;20214;-80
2023/10/19 02:30:35;;;;;;;16.97;13.93;;;;;;;;;;5010005;28;20218;-80
2023/10/19 02:33:03;;;;;;;22.20;16.27;;;;;;;;;;4994683;28;20183;-80
2023/10/19 02:35:30;;;;;;;25.13;18.10;;;;;;;;;;5005989;28;20187;-81
2023/10/19 02:37:58;;;;;;;17.13;13.60;;;;;;;;;;4976336;28;20568;-80
2023/10/19 02:40:24;;;;;;;16.43;13.13;;;;;;;;;;4980463;28;20198;-80
2023/10/19 02:42:53;;;;;;;15.23;12.17;;;;;;;;;;5007401;28;20183;-80
2023/10/19 02:45:19;;;;;;;15.33;11.70;;;;;;;;;;4988358;28;20673;-81
2023/10/19 02:47:45;;;;;;;17.70;12.60;;;;;;;;;;4995323;28;20211;-80
2023/10/19 02:50:22;;;;;;;16.93;12.47;;;;;;;;;;5009016;28;20273;-80
2023/10/19 02:52:48;;;;;;;11.63;10.23;;;;;;;;;;5002702;28;20670;-80
2023/10/19 02:55:17;;;;;;;16.73;12.00;;;;;;;;;;4976248;28;20191;-79
2023/10/19 02:57:46;;;;;;;14.43;11.50;;;;;;;;;;4990232;28;20232;-80
2023/10/19 03:00:20;;;;;;;20.10;14.03;;;;;;;;;;4995222;28;20199;-80
2023/10/19 03:02:47;;;;;;;15.50;12.13;;;;;;;;;;4996325;28;20179;-80
2023/10/19 03:05:17;;;;;;;12.73;11.17;;;;;;;;;;5011836;28;20205;-83
2023/10/19 03:07:44;;;;;;;15.97;12.33;;;;;;;;;;4998180;28;20774;-81
2023/10/19 03:12:57;;;;;;;15.70;11.77;;;;;;;;;;5010739;28;20195;-80
2023/10/19 03:15:23;;;;;;;17.73;13.27;;;;;;;;;;5008423;28;20189;-80
2023/10/19 03:17:50;;;;;;;18.97;13.93;;;;;;;;;;5011367;28;20199;-80
2023/10/19 03:20:23;;;;;;;14.30;12.00;;;;;;;;;;4994693;28;20270;-80
2023/10/19 03:22:50;;;;;;;16.27;13.63;;;;;;;;;;4999480;28;20261;-80
2023/10/19 03:28:16;;;;;;;15.87;12.77;;;;;;;;;;5008652;28;20310;-80
2023/10/19 03:30:42;;;;;;;14.00;11.90;;;;;;;;;;5011715;28;20251;-80
2023/10/19 03:33:09;;;;;;;14.50;12.10;;;;;;;;;;4995179;28;20179;-80
2023/10/19 03:35:37;;;;;;;13.43;11.77;;;;;;;;;;4992291;28;20180;-80
2023/10/19 03:38:08;;;;;;;15.30;12.10;;;;;;;;;;4981558;28;20219;-81
2023/10/19 03:40:38;;;;;;;15.70;12.27;;;;;;;;;;4992471;28;20591;-81
2023/10/19 03:43:15;;;;;;;14.40;12.23;;;;;;;;;;5007940;28;20191;-81
2023/10/19 03:45:46;;;;;;;16.83;10.83;;;;;;;;;;5009638;28;20187;-81
2023/10/19 03:48:15;;;;;;;18.00;14.33;;;;;;;;;;4974944;28;20705;-81
2023/10/19 03:50:42;;;;;;;13.60;11.20;;;;;;;;;;5006237;28;20290;-81
2023/10/19 03:53:12;;;;;;;20.40;14.67;;;;;;;;;;4979723;28;20266;-81
2023/10/19 03:55:38;;;;;;;17.53;13.03;;;;;;;;;;4990971;28;20179;-81
2023/10/19 03:58:05;;;;;;;19.03;13.93;;;;;;;;;;4993863;28;20203;-81
2023/10/19 04:00:33;;;;;;;22.70;14.73;;;;;;;;;;4998461;28;20195;-81
2023/10/19 04:02:59;;;;;;;24.70;15.37;;;;;;;;;;5019190;28;20205;-81
2023/10/19 04:05:28;;;;;;;17.33;12.67;;;;;;;;;;5025096;28;20215;-81
2023/10/19 04:08:05;;;;;;;16.30;12.00;;;;;;;;;;4985193;28;20203;-81
2023/10/19 04:10:38;;;;;;;21.10;13.53;;;;;;;;;;4999806;28;20225;-81
2023/10/19 04:13:09;;;;;;;17.80;12.67;;;;;;;;;;5006966;28;20187;-81
2023/10/19 04:15:36;;;;;;;14.43;11.53;;;;;;;;;;4992777;28;20548;-81
2023/10/19 04:18:08;;;;;;;16.77;11.40;;;;;;;;;;4995990;28;20275;-81
2023/10/19 04:20:42;;;;;;;19.93;12.40;;;;;;;;;;5010635;28;20187;-81
2023/10/19 04:23:11;;;;;;;19.37;12.53;;;;;;;;;;4993057;28;20325;-81
2023/10/19 04:25:37;;;;;;;21.87;13.83;;;;;;;;;;5008382;28;20187;-81
2023/10/19 04:28:04;;;;;;;12.73;10.13;;;;;;;;;;5013737;28;20737;-81
2023/10/19 04:30:33;;;;;;;11.57;8.90;;;;;;;;;;4993520;28;20268;-81
2023/10/19 04:33:01;;;;;;;8.90;8.00;;;;;;;;;;4996323;28;20194;-81
2023/10/19 04:35:30;;;;;;;10.10;8.13;;;;;;;;;;5009724;28;20198;-81
2023/10/19 04:37:56;;;;;;;9.87;7.87;;;;;;;;;;4991013;28;20203;-81
2023/10/19 04:40:23;;;;;;;8.37;7.43;;;;;;;;;;5011817;28;20207;-81
2023/10/19 04:42:51;;;;;;;10.47;8.03;;;;;;;;;;5007531;28;20195;-81
2023/10/19 04:45:17;;;;;;;8.80;7.17;;;;;;;;;;4989839;28;20191;-81
2023/10/19 04:47:43;;;;;;;8.67;7.27;;;;;;;;;;5001134;28;20204;-79
2023/10/19 04:50:10;;;;;;;10.07;7.50;;;;;;;;;;5007122;28;20203;-81
2023/10/19 04:52:37;;;;;;;8.63;6.57;;;;;;;;;;5007378;28;20271;-81
2023/10/19 04:55:03;;;;;;;9.17;6.93;;;;;;;;;;4998078;28;20176;-81
2023/10/19 04:57:30;;;;;;;9.30;7.60;;;;;;;;;;4996068;28;20262;-81
2023/10/19 04:59:57;;;;;;;8.73;7.37;;;;;;;;;;4984499;28;20202;-81
2023/10/19 05:02:23;;;;;;;9.10;7.10;;;;;;;;;;5010433;28;20186;-81
2023/10/19 05:04:49;;;;;;;8.77;7.03;;;;;;;;;;5014586;28;20262;-81
2023/10/19 05:07:18;;;;;;;8.23;7.07;;;;;;;;;;5028043;28;20187;-81
2023/10/19 05:09:45;;;;;;;7.57;6.60;;;;;;;;;;5010103;28;20215;-81
2023/10/19 05:12:11;;;;;;;7.83;6.20;;;;;;;;;;5012500;28;20187;-81
2023/10/19 05:14:38;;;;;;;8.63;6.93;;;;;;;;;;5013392;28;20175;-81
2023/10/19 05:17:05;;;;;;;7.47;6.60;;;;;;;;;;5014757;28;20179;-81
2023/10/19 05:19:31;;;;;;;7.90;7.00;;;;;;;;;;5011503;28;20234;-81
2023/10/19 05:21:58;;;;;;;8.93;7.50;;;;;;;;;;5017692;28;20363;-81
2023/10/19 05:24:24;;;;;;;8.60;7.70;;;;;;;;;;4987546;28;20187;-81
2023/10/19 05:26:50;;;;;;;8.40;7.53;;;;;;;;;;5024022;28;20198;-81
2023/10/19 05:29:16;;;;;;;10.03;8.00;;;;;;;;;;5021292;28;20572;-81
2023/10/19 05:31:43;;;;;;;9.07;7.83;;;;;;;;;;5015729;28;20423;-81
2023/10/19 05:34:09;;;;;;;8.50;7.60;;;;;;;;;;5017685;28;20183;-84
2023/10/19 05:36:35;;;;;;;9.73;8.07;;;;;;;;;;4996984;28;20191;-81
2023/10/19 05:39:03;;;;;;;9.33;7.60;;;;;;;;;;4993781;28;20277;-76
2023/10/19 05:41:31;;;;;;;10.33;8.37;;;;;;;;;;5008910;28;20226;-78
2023/10/19 05:43:57;;;;;;;8.90;7.87;;;;;;;;;;4989320;28;20611;-79
2023/10/19 05:46:25;;;;;;;9.60;8.30;;;;;;;;;;5001504;28;20233;-82
2023/10/19 05:48:51;;;;;;;9.87;7.87;;;;;;;;;;5017579;28;20219;-79
2023/10/19 05:51:17;;;;;;;8.60;7.70;;;;;;;;;;4993702;28;20207;-77
2023/10/19 05:53:44;;;;;;;9.73;7.47;;;;;;;;;;5007311;28;20223;-75
2023/10/19 05:56:11;;;;;;;10.40;7.57;;;;;;;;;;5010699;28;20207;-76
2023/10/19 05:58:37;;;;;;;7.37;6.60;;;;;;;;;;5010645;28;20208;-79
2023/10/19 06:01:03;;;;;;;7.87;6.87;;;;;;;;;;5010737;28;20673;-81
2023/10/19 06:03:29;;;;;;;9.23;6.60;;;;;;;;;;5008823;28;20190;-81
2023/10/19 06:05:56;;;;;;;8.60;7.20;;;;;;;;;;5014198;28;20191;-79
2023/10/19 06:08:23;;;;;;;9.70;7.40;;;;;;;;;;5009313;28;20229;-79
2023/10/19 06:10:52;;;;;;;9.47;7.80;;;;;;;;;;5006625;28;20223;-79
2023/10/19 06:13:19;;;;;;;8.83;6.90;;;;;;;;;;5004761;28;20191;-79
2023/10/19 06:15:45;;;;;;;9.50;7.33;;;;;;;;;;5022962;28;20235;-79
2023/10/19 06:18:13;;;;;;;8.83;7.47;;;;;;;;;;4993589;28;20282;-80
2023/10/19 06:20:44;;;;;;;8.53;6.40;;;;;;;;;;5007318;28;20599;-80
2023/10/19 06:23:11;;;;;;;9.20;7.47;;;;;;;;;;5008655;28;20183;-79
2023/10/19 06:25:37;;;;;;;8.63;7.40;;;;;;;;;;4991974;28;20191;-79
2023/10/19 06:28:04;;;;;;;9.70;7.70;;;;;;;;;;5011635;28;20211;-79
2023/10/19 06:30:30;;;;;;;7.90;7.03;;;;;;;;;;5009472;28;20206;-79
2023/10/19 06:33:01;;;;;;;10.13;7.93;;;;;;;;;;4985612;28;20282;-79
2023/10/19 06:35:27;;;;;;;10.30;7.83;;;;;;;;;;4989330;28;20326;-78
2023/10/19 06:37:58;;;;;;;9.57;8.57;;;;;;;;;;5010374;28;20203;-79
2023/10/19 06:40:26;;;;;;;7.93;7.10;;;;;;;;;;5006573;28;20195;-79
2023/10/19 06:42:53;;;;;;;10.53;8.33;;;;;;;;;;4997900;28;20197;-80
2023/10/19 06:45:19;;;;;;;11.20;7.57;;;;;;;;;;5012159;28;20195;-88
2023/10/19 06:47:46;;;;;;;10.00;7.03;;;;;;;;;;4978892;28;20670;-81
2023/10/19 06:50:15;;;;;;;7.83;7.03;;;;;;;;;;4992012;28;20215;-84
2023/10/19 06:52:42;;;;;;;10.03;7.67;;;;;;;;;;5010004;28;20194;-83
2023/10/19 06:55:19;;;;;;;9.50;7.37;;;;;;;;;;5020158;28;20183;-83
2023/10/19 06:57:47;;;;;;;10.13;8.00;;;;;;;;;;4986342;28;20222;-82
2023/10/19 07:00:14;;;;;;;8.40;7.50;;;;;;;;;;5013277;28;20269;-83
2023/10/19 07:02:44;;;;;;;9.07;7.30;;;;;;;;;;5014388;28;20682;-83
2023/10/19 07:05:17;;;;;;;8.57;7.63;;;;;;;;;;4978858;28;20206;-83
2023/10/19 07:07:44;;;;;;;10.33;7.97;;;;;;;;;;5010863;28;20270;-83
2023/10/19 07:10:14;;;;;;;9.20;7.80;;;;;;;;;;5012764;28;20211;-83
2023/10/19 07:12:42;;;;;;;10.63;7.60;;;;;;;;;;4995312;28;20184;-83
2023/10/19 07:15:13;;;;;;;8.90;8.00;;;;;;;;;;5012197;28;20298;-82
2023/10/19 07:17:40;;;;;;;10.47;8.20;;;;;;;;;;5009547;28;20710;-83
2023/10/19 07:20:07;;;;;;;11.03;8.20;;;;;;;;;;5003727;28;20192;-82
2023/10/19 07:22:34;;;;;;;10.47;7.43;;;;;;;;;;4994159;28;20202;-83
2023/10/19 07:25:00;;;;;;;9.33;7.60;;;;;;;;;;4985829;28;20195;-82
2023/10/19 07:27:28;;;;;;;11.57;7.33;;;;;;;;;;5014486;28;20198;-83
2023/10/19 07:29:54;;;;;;;9.23;7.50;;;;;;;;;;5015183;28;20253;-83
2023/10/19 07:32:21;;;;;;;8.53;7.17;;;;;;;;;;5028568;28;20897;-83
2023/10/19 07:34:48;;;;;;;8.97;6.70;;;;;;;;;;5013767;28;20180;-84
2023/10/19 07:37:17;;;;;;;9.07;7.07;;;;;;;;;;4998526;28;20189;-85
2023/10/19 07:39:46;;;;;;;8.27;6.40;;;;;;;;;;4995161;28;20241;-83
2023/10/19 07:42:13;;;;;;;10.67;6.87;;;;;;;;;;4994955;28;20195;-82
2023/10/19 07:44:39;;;;;;;7.63;6.10;;;;;;;;;;5013952;28;20187;-83
2023/10/19 07:47:07;;;;;;;8.90;6.97;;;;;;;;;;5035022;28;20275;-83
2023/10/19 07:49:33;;;;;;;8.57;5.83;;;;;;;;;;4996661;28;20332;-83
2023/10/19 07:52:00;;;;;;;8.33;6.50;;;;;;;;;;4992529;28;20190;-83
2023/10/19 07:54:27;;;;;;;7.97;6.03;;;;;;;;;;4993453;28;20257;-82
2023/10/19 07:56:53;;;;;;;8.53;6.07;;;;;;;;;;4993430;28;20183;-83
2023/10/19 07:59:19;;;;;;;9.47;6.33;;;;;;;;;;5044355;28;20196;-83
2023/10/19 08:01:45;;;;;;;7.47;6.40;;;;;;;;;;5005582;28;20215;-83
2023/10/19 08:04:12;;;;;;;7.37;6.20;;;;;;;;;;5010104;28;20184;-84
2023/10/19 08:06:38;;;;;;;8.40;6.40;;;;;;;;;;5008795;28;20213;-83
2023/10/19 08:09:04;;;;;;;8.90;6.77;;;;;;;;;;4991489;28;20280;-83
2023/10/19 08:11:31;;;;;;;7.30;6.10;;;;;;;;;;5005521;28;20192;-83
2023/10/19 08:13:57;;;;;;;8.30;5.83;;;;;;;;;;4981206;28;20199;-84
2023/10/19 08:16:24;;;;;;;6.10;5.27;;;;;;;;;;5005409;28;20714;-83
2023/10/19 08:18:52;;;;;;;6.47;5.37;;;;;;;;;;5006873;28;20551;-84
2023/10/19 08:21:18;;;;;;;6.87;5.40;;;;;;;;;;4998551;28;20199;-83
2023/10/19 08:23:46;;;;;;;8.30;5.63;;;;;;;;;;5004951;28;20259;-83
2023/10/19 08:26:12;;;;;;;8.40;5.70;;;;;;;;;;5017087;28;20222;-84
2023/10/19 08:28:38;;;;;;;6.63;5.07;;;;;;;;;;5007687;28;20305;-83
2023/10/19 08:31:05;;;;;;;6.77;4.93;;;;;;;;;;4989941;28;20203;-83
2023/10/19 08:33:33;;;;;;;5.80;4.87;;;;;;;;;;4990144;28;20198;-83
2023/10/19 08:35:59;;;;;;;6.77;5.00;;;;;;;;;;4988859;28;20725;-83
2023/10/19 08:38:26;;;;;;;7.30;5.20;;;;;;;;;;4990446;28;20715;-82
2023/10/19 08:40:53;;;;;;;6.40;5.20;;;;;;;;;;5015725;28;20286;-84
2023/10/19 08:43:21;;;;;;;6.63;5.30;;;;;;;;;;4977102;28;20222;-83
2023/10/19 08:45:47;;;;;;;6.97;4.90;;;;;;;;;;5007069;28;20190;-83
2023/10/19 08:48:14;;;;;;;6.87;5.40;;;;;;;;;;4974150;28;20325;-83
2023/10/19 08:50:43;;;;;;;7.40;5.43;;;;;;;;;;4990815;28;20635;-84
2023/10/19 08:53:14;;;;;;;6.73;5.80;;;;;;;;;;5007580;28;20190;-84
2023/10/19 08:55:40;;;;;;;5.60;4.70;;;;;;;;;;5008421;28;20584;-83
2023/10/19 08:58:06;;;;;;;7.30;5.97;;;;;;;;;;4991694;28;20203;-83
2023/10/19 09:00:54;;;;;;;7.27;6.00;;;;;;;;;;5004739;28;20214;-83
2023/10/19 09:03:21;;;;;;;6.37;5.20;;;;;;;;;;5005908;28;20588;-84
2023/10/19 09:05:48;;;;;;;6.00;5.10;;;;;;;;;;5005492;28;20195;-83
2023/10/19 09:08:15;;;;;;;7.13;5.43;;;;;;;;;;5005559;28;20741;-83
2023/10/19 09:10:45;;;;;;;5.30;4.70;;;;;;;;;;5004164;28;20215;-84
2023/10/19 09:13:12;;;;;;;6.73;4.60;;;;;;;;;;5010143;28;20334;-84
2023/10/19 09:15:39;;;;;;;7.00;5.40;;;;;;;;;;4991997;28;20191;-83
2023/10/19 09:18:15;;;;;;;6.47;5.07;;;;;;;;;;4990922;28;20211;-83
2023/10/19 09:20:52;;;;;;;6.80;5.50;;;;;;;;;;5013309;28;20190;-83
2023/10/19 09:23:21;;;;;;;6.83;5.60;;;;;;;;;;5018225;28;20183;-83
2023/10/19 09:25:54;;;;;;;7.20;5.00;;;;;;;;;;4998169;28;20187;-84
2023/10/19 09:28:24;;;;;;;6.13;4.80;;;;;;;;;;5012698;28;20594;-84
2023/10/19 09:30:51;;;;;;;7.70;4.70;;;;;;;;;;4999287;28;20208;-83
2023/10/19 09:33:18;;;;;;;7.20;5.27;;;;;;;;;;5009923;28;20624;-83
2023/10/19 09:35:48;;;;;;;6.67;4.97;;;;;;;;;;4993330;28;20219;-83
2023/10/19 09:38:21;;;;;;;7.90;5.10;;;;;;;;;;4990236;28;20225;-84
2023/10/19 09:40:51;;;;;;;7.60;4.57;;;;;;;;;;4982226;28;20241;-84
2023/10/19 09:43:26;;;;;;;8.17;4.47;;;;;;;;;;5011562;28;20191;-84
2023/10/19 09:45:53;;;;;;;6.27;4.80;;;;;;;;;;4982579;28;20234;-84
2023/10/19 09:48:20;;;;;;;6.13;5.13;;;;;;;;;;5018785;28;20225;-84
2023/10/19 09:50:55;;;;;;;8.67;5.20;;;;;;;;;;5004485;28;20278;-84
2023/10/19 09:53:23;;;;;;;6.70;4.83;;;;;;;;;;4997832;28;20202;-84
2023/10/19 09:55:50;;;;;;;5.30;4.63;;;;;;;;;;5000367;28;20191;-84
2023/10/19 09:58:18;;;;;;;8.30;4.97;;;;;;;;;;5020557;28;20199;-84
2023/10/19 10:00:45;;;;;;;6.33;5.10;;;;;;;;;;5000084;28;20206;-84
2023/10/19 10:03:30;;;;;;;6.27;4.90;;;;;;;;;;5016171;28;20194;-83
2023/10/19 10:05:57;;;;;;;9.00;4.33;;;;;;;;;;5000254;28;20286;-83
2023/10/19 10:08:26;;;;;;;7.27;5.13;;;;;;;;;;5013944;28;20207;-83
2023/10/19 10:10:52;;;;;;;5.70;4.70;;;;;;;;;;5013361;28;20234;-84
2023/10/19 10:13:27;;;;;;;5.27;4.40;;;;;;;;;;5009835;28;20183;-84
2023/10/19 10:15:54;;;;;;;6.50;4.33;;;;;;;;;;5011625;28;20194;-85
2023/10/19 10:18:21;;;;;;;6.87;4.30;;;;;;;;;;4999210;28;20203;-83
2023/10/19 10:20:48;;;;;;;6.80;4.40;;;;;;;;;;5011106;28;20215;-84
2023/10/19 10:23:21;;;;;;;7.27;4.60;;;;;;;;;;5007771;28;20199;-86
2023/10/19 10:25:53;;;;;;;6.27;4.57;;;;;;;;;;5020881;28;20190;-84
2023/10/19 10:28:23;;;;;;;6.87;4.10;;;;;;;;;;4997989;28;20212;-81
2023/10/19 10:31:08;;;;;;;6.47;4.10;;;;;;;;;;5012662;28;20220;-81
2023/10/19 10:33:47;;;;;;;6.07;3.70;;;;;;;;;;5008704;28;20560;-83
2023/10/19 10:36:14;;;;;;;5.23;3.60;;;;;;;;;;5037220;28;20221;-85
2023/10/19 10:38:41;;;;;;;7.27;3.43;;;;;;;;;;5011353;28;20207;-84
2023/10/19 10:41:10;;;;;;;5.27;3.77;;;;;;;;;;5013331;28;20594;-83
2023/10/19 10:43:53;;;;;;;4.67;3.07;;;;;;;;;;4994154;28;20198;-84
2023/10/19 10:46:21;;;;;;;4.87;3.10;;;;;;;;;;4998936;28;20808;-84
2023/10/19 10:48:51;;;;;;;4.93;2.83;;;;;;;;;;5014485;28;20212;-84
2023/10/19 10:51:22;;;;;;;3.97;2.83;;;;;;;;;;4996913;28;20309;-84
2023/10/19 10:53:48;;;;;;;5.27;3.40;;;;;;;;;;5013934;28;20194;-84
2023/10/19 10:56:15;;;;;;;5.20;3.83;;;;;;;;;;5002196;28;20273;-84
2023/10/19 10:58:41;;;;;;;4.20;3.23;;;;;;;;;;5000160;28;20238;-83
2023/10/19 11:01:07;;;;;;;4.63;3.30;;;;;;;;;;5021450;28;20289;-83
2023/10/19 11:03:33;;;;;;;3.93;2.90;;;;;;;;;;5017881;28;20195;-84
2023/10/19 11:06:03;;;;;;;3.43;3.00;;;;;;;;;;5009765;28;20267;-84
2023/10/19 11:08:32;;;;;;;6.63;3.30;;;;;;;;;;5016846;28;20215;-84
2023/10/19 11:11:04;;;;;;;5.30;3.20;;;;;;;;;;5022429;28;20217;-84
2023/10/19 11:13:33;;;;;;;4.00;3.00;;;;;;;;;;5002823;28;20250;-83
2023/10/19 11:16:01;;;;;;;3.97;3.20;;;;;;;;;;5024272;28;20187;-84
2023/10/19 11:18:32;;;;;;;3.40;2.93;;;;;;;;;;5018363;28;20207;-84
2023/10/19 11:21:04;;;;;;;3.53;2.73;;;;;;;;;;5013645;28;20194;-83
2023/10/19 11:23:41;;;;;;;3.10;2.80;;;;;;;;;;5010596;28;20266;-83
2023/10/19 11:26:07;;;;;;;3.43;3.00;;;;;;;;;;4989956;28;20558;-84
2023/10/19 11:28:38;;;;;;;3.97;2.77;;;;;;;;;;4988944;28;20208;-84
2023/10/19 11:31:12;;;;;;;6.27;3.13;;;;;;;;;;4986369;28;20219;-84
2023/10/19 11:33:38;;;;;;;3.43;2.60;;;;;;;;;;5001551;28;20188;-84
2023/10/19 11:36:05;;;;;;;5.47;3.00;;;;;;;;;;5014400;28;20274;-84
2023/10/19 11:38:32;;;;;;;4.93;2.80;;;;;;;;;;5011450;28;20207;-83
2023/10/19 11:40:58;;;;;;;4.10;2.93;;;;;;;;;;5010559;28;20550;-84
2023/10/19 11:43:24;;;;;;;3.77;2.80;;;;;;;;;;5008875;28;20186;-84
2023/10/19 11:45:51;;;;;;;4.00;2.80;;;;;;;;;;4983598;28;20196;-84
2023/10/19 11:48:17;;;;;;;4.03;2.97;;;;;;;;;;5007581;28;20242;-84
2023/10/19 11:50:43;;;;;;;4.47;2.80;;;;;;;;;;4994957;28;20243;-84
2023/10/19 11:53:09;;;;;;;5.90;3.43;;;;;;;;;;5007135;28;20175;-84
2023/10/19 11:55:36;;;;;;;4.57;2.70;;;;;;;;;;5006203;28;20192;-84
2023/10/19 11:58:02;;;;;;;5.13;3.47;;;;;;;;;;4982082;28;20203;-84
2023/10/19 12:00:37;;;;;;;4.03;3.10;;;;;;;;;;5025932;28;20669;-84
2023/10/19 12:03:06;;;;;;;3.10;2.70;;;;;;;;;;5007186;28;20194;-84
2023/10/19 12:05:36;;;;;;;4.13;2.93;;;;;;;;;;5005235;28;20206;-84
2023/10/19 12:08:03;;;;;;;4.37;2.80;;;;;;;;;;5007080;28;20286;-83
2023/10/19 12:10:35;;;;;;;4.60;3.50;;;;;;;;;;5013037;28;20240;-84
2023/10/19 12:13:08;;;;;;;3.60;2.90;;;;;;;;;;5007714;28;20650;-83
2023/10/19 12:15:35;;;;;;;5.77;4.30;;;;;;;;;;4998682;28;20207;-84
2023/10/19 12:18:02;;;;;;;8.10;5.53;;;;;;;;;;5022224;28;20367;-84
2023/10/19 12:20:31;;;;;;;11.60;10.60;;;;;;;;;;4992848;28;20651;-84
2023/10/19 12:22:58;;;;;;;7.10;6.40;;;;;;;;;;4981048;28;20221;-84
2023/10/19 12:25:31;;;;;;;8.33;5.50;;;;;;;;;;5008957;28;20191;-84
2023/10/19 12:27:59;;;;;;;4.40;3.90;;;;;;;;;;5004240;28;20288;-84
2023/10/19 12:30:28;;;;;;;5.13;3.67;;;;;;;;;;4990256;28;20614;-84
2023/10/19 12:32:54;;;;;;;3.63;3.30;;;;;;;;;;4994514;28;20245;-84
2023/10/19 12:35:24;;;;;;;4.67;3.30;;;;;;;;;;4991309;28;20187;-84
2023/10/19 12:37:55;;;;;;;3.90;3.37;;;;;;;;;;5013335;28;20268;-84
2023/10/19 12:40:35;;;;;;;4.33;3.70;;;;;;;;;;5029869;28;20194;-84
2023/10/19 12:43:03;;;;;;;3.97;3.23;;;;;;;;;;5010128;28;20179;-84
2023/10/19 12:45:29;;;;;;;5.10;3.23;;;;;;;;;;4998817;28;20195;-83
2023/10/19 12:47:55;;;;;;;5.23;3.83;;;;;;;;;;5016732;28;20218;-83
2023/10/19 12:50:23;;;;;;;6.67;4.33;;;;;;;;;;4997020;28;20237;-84
2023/10/19 12:52:50;;;;;;;6.83;3.90;;;;;;;;;;5006590;28;20183;-84
2023/10/19 12:55:19;;;;;;;7.77;4.83;;;;;;;;;;5004111;28;20333;-84
2023/10/19 12:57:45;;;;;;;6.47;4.40;;;;;;;;;;5020391;28;20539;-84
2023/10/19 13:00:25;;;;;;;7.57;5.03;;;;;;;;;;4999132;28;20206;-84
2023/10/19 13:03:03;;;;;;;7.07;5.00;;;;;;;;;;5012732;28;20195;-85
2023/10/19 13:05:33;;;;;;;6.93;5.30;;;;;;;;;;4989986;28;20242;-84
2023/10/19 13:08:00;;;;;;;8.23;7.03;;;;;;;;;;5005957;28;20207;-84
2023/10/19 13:10:32;;;;;;;7.10;5.33;;;;;;;;;;4996085;28;20245;-86
2023/10/19 13:13:04;;;;;;;6.00;5.17;;;;;;;;;;5002962;28;20218;-84
2023/10/19 13:15:32;;;;;;;6.87;5.07;;;;;;;;;;5014421;28;20202;-84
2023/10/19 13:17:59;;;;;;;6.67;5.30;;;;;;;;;;4994213;28;20297;-84
2023/10/19 13:20:25;;;;;;;7.13;5.57;;;;;;;;;;5014705;28;20271;-84
2023/10/19 13:22:52;;;;;;;6.87;5.67;;;;;;;;;;5002876;28;20234;-84
2023/10/19 13:25:28;;;;;;;9.13;6.30;;;;;;;;;;5010897;28;20264;-84
2023/10/19 13:27:54;;;;;;;6.70;5.30;;;;;;;;;;5015529;28;20591;-84
2023/10/19 13:30:21;;;;;;;7.73;5.83;;;;;;;;;;5015489;28;20218;-84
2023/10/19 13:32:47;;;;;;;7.47;6.40;;;;;;;;;;4982160;28;20188;-84
2023/10/19 13:35:13;;;;;;;8.13;6.67;;;;;;;;;;5016436;28;20183;-84
2023/10/19 13:37:39;;;;;;;7.80;5.90;;;;;;;;;;4980767;28;20219;-83
2023/10/19 13:40:06;;;;;;;7.27;6.57;;;;;;;;;;5013013;28;20183;-84
2023/10/19 13:42:34;;;;;;;8.73;6.70;;;;;;;;;;4997098;28;20210;-84
2023/10/19 13:45:19;;;;;;;7.47;6.57;;;;;;;;;;5008480;28;20283;-84
2023/10/19 13:47:45;;;;;;;7.93;5.87;;;;;;;;;;5017134;28;20222;-84
2023/10/19 13:50:13;;;;;;;10.23;7.03;;;;;;;;;;4993965;28;20277;-83
2023/10/19 13:52:39;;;;;;;8.37;6.63;;;;;;;;;;4993623;28;20187;-84
2023/10/19 13:55:07;;;;;;;7.50;6.80;;;;;;;;;;4991481;28;20647;-84
2023/10/19 13:57:33;;;;;;;9.53;7.10;;;;;;;;;;5004758;28;20191;-83
2023/10/19 14:00:01;;;;;;;9.17;7.30;;;;;;;;;;4978287;28;20240;-84
2023/10/19 14:02:27;;;;;;;14.70;12.23;;;;;;;;;;5007062;28;20325;-84
2023/10/19 14:04:53;;;;;;;23.53;17.27;;;;;;;;;;4995222;28;20233;-84
2023/10/19 14:07:19;;;;;;;19.57;11.13;;;;;;;;;;5015739;28;20195;-84
2023/10/19 14:09:46;;;;;;;11.87;8.47;;;;;;;;;;4997354;28;20216;-84
2023/10/19 14:12:12;;;;;;;11.43;7.97;;;;;;;;;;5024454;28;20251;-84
2023/10/19 14:14:38;;;;;;;9.00;7.47;;;;;;;;;;5015756;28;20278;-84
2023/10/19 14:17:05;;;;;;;8.50;7.60;;;;;;;;;;4999702;28;20187;-84
2023/10/19 14:19:31;;;;;;;10.10;7.67;;;;;;;;;;5017758;28;20605;-84
2023/10/19 14:21:57;;;;;;;8.47;7.63;;;;;;;;;;5014828;28;20580;-83
2023/10/19 14:24:24;;;;;;;12.60;9.60;;;;;;;;;;5018643;28;20198;-84
2023/10/19 14:26:51;;;;;;;16.27;12.67;;;;;;;;;;4992075;28;20219;-84
2023/10/19 14:29:17;;;;;;;13.53;10.17;;;;;;;;;;4981232;28;20574;-83
2023/10/19 14:31:44;;;;;;;11.93;8.87;;;;;;;;;;4990802;28;20639;-84
2023/10/19 14:34:10;;;;;;;10.67;9.03;;;;;;;;;;5018546;28;20185;-84
2023/10/19 14:36:36;;;;;;;13.77;10.03;;;;;;;;;;5013038;28;20199;-84
2023/10/19 14:39:03;;;;;;;12.03;10.03;;;;;;;;;;4988875;28;20214;-83
2023/10/19 14:41:29;;;;;;;14.53;9.53;;;;;;;;;;4993089;28;20290;-83
2023/10/19 14:43:55;;;;;;;12.10;9.30;;;;;;;;;;4991744;28;20225;-83
2023/10/19 14:46:22;;;;;;;11.30;9.73;;;;;;;;;;5007622;28;20562;-83
2023/10/19 14:48:48;;;;;;;11.50;9.10;;;;;;;;;;5010485;28;20226;-84
2023/10/19 14:51:14;;;;;;;12.23;9.63;;;;;;;;;;4994795;28;20222;-84
2023/10/19 14:53:40;;;;;;;10.20;8.40;;;;;;;;;;4995673;28;20273;-84
2023/10/19 14:56:07;;;;;;;15.50;11.30;;;;;;;;;;5015563;28;20183;-84